createdAt,value
2022-10-16T00:00:24.533Z,14.70
2022-10-16T00:02:52.730Z,14.70
2022-10-16T00:05:28.793Z,14.70
2022-10-16T00:07:57.189Z,14.70
2022-10-16T00:10:25.556Z,14.70
2022-10-16T00:12:57.696Z,14.70
2022-10-16T00:15:25.990Z,14.70
2022-10-16T00:17:54.491Z,14.70
2022-10-16T00:20:24.802Z,14.70
2022-10-16T00:22:53.762Z,14.60
2022-10-16T00:25:23.585Z,14.60
2022-10-16T00:27:51.806Z,14.70
2022-10-16T00:30:24.459Z,14.70
2022-10-16T00:32:54.053Z,14.70
2022-10-16T00:35:22.328Z,14.70
2022-10-16T00:37:50.682Z,14.70
2022-10-16T00:40:23.287Z,14.60
2022-10-16T00:42:51.935Z,14.60
2022-10-16T00:45:21.639Z,14.70
2022-10-16T00:47:52.880Z,14.60
2022-10-16T00:50:26.583Z,14.70
2022-10-16T00:52:54.950Z,14.60
2022-10-16T00:55:23.363Z,14.70
2022-10-16T00:57:51.682Z,14.60
2022-10-16T01:00:22.730Z,14.60
2022-10-16T01:02:54.930Z,14.70
2022-10-16T01:05:24.049Z,14.60
2022-10-16T01:07:56.294Z,14.60
2022-10-16T01:10:29.581Z,14.70
2022-10-16T01:13:07.587Z,14.70
2022-10-16T01:15:45.314Z,14.80
2022-10-16T01:18:17.277Z,14.80
2022-10-16T01:20:48.878Z,14.80
2022-10-16T01:23:24.392Z,14.80
2022-10-16T01:26:17.788Z,14.80
2022-10-16T01:28:50.015Z,14.80
2022-10-16T01:31:20.949Z,14.80
2022-10-16T01:33:50.472Z,14.80
2022-10-16T01:36:22.093Z,14.80
2022-10-16T01:38:53.810Z,14.80
2022-10-16T01:41:25.970Z,14.80
2022-10-16T01:43:59.472Z,14.80
2022-10-16T01:46:28.163Z,14.70
2022-10-16T01:48:56.358Z,14.70
2022-10-16T01:51:25.483Z,14.70
2022-10-16T01:53:55.130Z,14.70
2022-10-16T01:56:23.763Z,14.60
2022-10-16T01:58:54.877Z,14.60
2022-10-16T02:01:25.340Z,14.60
2022-10-16T02:03:55.619Z,14.50
2022-10-16T02:06:26.630Z,14.50
2022-10-16T02:08:55.792Z,14.50
2022-10-16T02:11:24.172Z,14.40
2022-10-16T02:13:55.843Z,14.40
2022-10-16T02:16:34.395Z,14.40
2022-10-16T02:19:02.815Z,14.40
2022-10-16T02:21:32.477Z,14.40
2022-10-16T02:24:02.671Z,14.40
2022-10-16T02:26:32.811Z,14.40
2022-10-16T02:29:05.813Z,14.30
2022-10-16T02:31:36.585Z,14.30
2022-10-16T02:34:06.115Z,14.30
2022-10-16T02:36:34.718Z,14.30
2022-10-16T02:39:04.928Z,14.30
2022-10-16T02:41:34.396Z,14.30
2022-10-16T02:44:05.648Z,14.30
2022-10-16T02:46:35.201Z,14.30
2022-10-16T02:49:07.987Z,14.20
2022-10-16T02:51:36.766Z,14.20
2022-10-16T02:54:05.142Z,14.20
2022-10-16T02:56:33.397Z,14.10
2022-10-16T02:59:01.666Z,14.10
2022-10-16T03:01:37.055Z,14.10
2022-10-16T03:04:06.220Z,14.10
2022-10-16T03:06:34.661Z,14.10
2022-10-16T03:09:07.402Z,14.10
2022-10-16T03:11:39.366Z,14.10
2022-10-16T03:14:07.912Z,14.00
2022-10-16T03:16:37.598Z,14.00
2022-10-16T03:19:05.990Z,14.00
2022-10-16T03:21:34.452Z,14.00
2022-10-16T03:24:02.763Z,13.90
2022-10-16T03:26:33.988Z,13.90
2022-10-16T03:29:09.449Z,13.90
2022-10-16T03:31:39.027Z,13.90
2022-10-16T03:34:07.501Z,13.80
2022-10-16T03:36:35.970Z,13.80
2022-10-16T03:39:04.205Z,13.80
2022-10-16T03:41:35.604Z,13.70
2022-10-16T03:44:03.918Z,13.70
2022-10-16T03:46:32.322Z,13.70
2022-10-16T03:49:04.874Z,13.70
2022-10-16T03:51:35.743Z,13.70
2022-10-16T03:54:04.035Z,13.70
2022-10-16T03:56:32.391Z,13.70
2022-10-16T03:59:00.611Z,13.80
2022-10-16T04:01:28.840Z,13.80
2022-10-16T04:03:57.000Z,13.80
2022-10-16T04:06:32.851Z,13.80
2022-10-16T04:09:01.577Z,13.90
2022-10-16T04:11:29.867Z,13.90
2022-10-16T04:13:58.290Z,13.90
2022-10-16T04:16:28.377Z,13.90
2022-10-16T04:18:56.762Z,14.00
2022-10-16T04:21:25.124Z,13.90
2022-10-16T04:23:57.681Z,14.00
2022-10-16T04:26:28.003Z,14.00
2022-10-16T04:28:56.220Z,13.90
2022-10-16T04:31:24.924Z,13.90
2022-10-16T04:33:54.381Z,13.90
2022-10-16T04:36:24.377Z,13.90
2022-10-16T04:38:55.049Z,13.90
2022-10-16T04:41:24.941Z,13.90
2022-10-16T04:43:53.362Z,13.90
2022-10-16T04:46:22.898Z,13.90
2022-10-16T04:48:52.584Z,14.00
2022-10-16T04:51:23.938Z,13.90
2022-10-16T04:53:55.381Z,14.00
2022-10-16T04:56:27.366Z,14.00
2022-10-16T04:58:55.573Z,14.00
2022-10-16T05:01:25.659Z,14.00
2022-10-16T05:04:05.977Z,14.10
2022-10-16T05:06:34.277Z,14.10
2022-10-16T05:09:05.013Z,14.10
2022-10-16T05:11:38.845Z,14.10
2022-10-16T05:14:07.191Z,14.10
2022-10-16T05:16:37.968Z,14.10
2022-10-16T05:21:54.786Z,14.10
2022-10-16T05:24:24.149Z,14.10
2022-10-16T05:26:54.188Z,14.10
2022-10-16T05:29:22.565Z,14.10
2022-10-16T05:31:52.984Z,14.10
2022-10-16T05:34:23.710Z,14.10
2022-10-16T05:36:51.935Z,14.10
2022-10-16T05:39:22.665Z,14.10
2022-10-16T05:41:53.448Z,14.10
2022-10-16T05:44:24.905Z,14.10
2022-10-16T05:46:53.321Z,14.10
2022-10-16T05:49:23.366Z,14.10
2022-10-16T05:51:51.766Z,14.10
2022-10-16T05:54:20.208Z,14.10
2022-10-16T05:56:48.359Z,14.10
2022-10-16T05:59:24.135Z,14.10
2022-10-16T06:01:52.313Z,14.10
2022-10-16T06:04:26.968Z,14.10
2022-10-16T06:06:55.248Z,14.00
2022-10-16T06:09:28.585Z,14.00
2022-10-16T06:11:58.511Z,14.00
2022-10-16T06:14:28.456Z,14.00
2022-10-16T06:16:56.796Z,14.00
2022-10-16T06:19:27.427Z,14.00
2022-10-16T06:21:55.755Z,14.00
2022-10-16T06:24:24.505Z,14.00
2022-10-16T06:26:53.191Z,14.00
2022-10-16T06:29:25.770Z,14.20
2022-10-16T06:31:55.767Z,14.00
2022-10-16T06:34:24.293Z,14.00
2022-10-16T06:36:52.688Z,13.90
2022-10-16T06:39:22.602Z,13.90
2022-10-16T06:41:51.031Z,13.90
2022-10-16T06:44:20.515Z,14.00
2022-10-16T06:46:51.041Z,14.00
2022-10-16T06:49:24.109Z,14.00
2022-10-16T06:51:52.327Z,14.00
2022-10-16T06:54:23.311Z,14.10
2022-10-16T06:56:51.617Z,14.10
2022-10-16T06:59:19.915Z,14.10
2022-10-16T07:01:48.166Z,14.10
2022-10-16T07:04:16.659Z,14.20
2022-10-16T07:06:46.483Z,14.20
2022-10-16T07:09:14.666Z,14.20
2022-10-16T07:11:43.326Z,14.30
2022-10-16T07:14:17.251Z,14.30
2022-10-16T07:16:53.239Z,14.30
2022-10-16T07:19:28.346Z,14.30
2022-10-16T07:22:01.860Z,14.40
2022-10-16T07:24:30.115Z,14.40
2022-10-16T07:26:58.393Z,14.40
2022-10-16T07:29:28.603Z,14.40
2022-10-16T07:31:56.885Z,14.40
2022-10-16T07:34:25.063Z,14.50
2022-10-16T07:36:53.668Z,14.50
2022-10-16T07:39:23.362Z,14.60
2022-10-16T07:41:51.715Z,14.60
2022-10-16T07:44:20.196Z,14.70
2022-10-16T07:46:48.510Z,14.80
2022-10-16T07:49:21.143Z,14.90
2022-10-16T07:51:52.013Z,14.90
2022-10-16T07:54:24.137Z,15.00
2022-10-16T07:56:53.954Z,15.10
2022-10-16T07:59:22.296Z,15.10
2022-10-16T08:01:51.713Z,15.20
2022-10-16T08:04:20.457Z,15.30
2022-10-16T08:06:57.595Z,15.40
2022-10-16T08:09:25.955Z,15.50
2022-10-16T08:12:02.319Z,15.60
2022-10-16T08:14:31.066Z,15.70
2022-10-16T08:17:07.475Z,15.80
2022-10-16T08:19:41.738Z,15.90
2022-10-16T08:22:10.185Z,16.00
2022-10-16T08:24:45.046Z,16.20
2022-10-16T08:27:15.294Z,16.40
2022-10-16T08:29:46.333Z,16.30
2022-10-16T08:32:25.285Z,16.50
2022-10-16T08:34:56.809Z,16.50
2022-10-16T08:37:31.948Z,16.50
2022-10-16T08:40:01.550Z,16.60
2022-10-16T08:42:38.559Z,16.80
2022-10-16T08:45:32.198Z,16.80
2022-10-16T08:48:20.280Z,16.80
2022-10-16T08:50:48.559Z,16.90
2022-10-16T08:53:25.950Z,16.90
2022-10-16T08:55:54.608Z,17.50
2022-10-16T08:58:32.125Z,16.80
2022-10-16T09:01:03.827Z,17.50
2022-10-16T09:03:42.049Z,17.40
2022-10-16T09:06:29.782Z,17.90
2022-10-16T09:09:27.776Z,17.10
2022-10-16T09:12:16.020Z,18.20
2022-10-16T09:15:03.361Z,17.60
2022-10-16T09:20:35.400Z,17.50
2022-10-16T09:23:16.963Z,17.60
2022-10-16T09:25:56.685Z,17.70
2022-10-16T09:28:28.703Z,17.70
2022-10-16T09:31:01.719Z,17.70
2022-10-16T09:33:38.548Z,17.90
2022-10-16T09:36:14.364Z,17.90
2022-10-16T09:38:45.142Z,18.00
2022-10-16T09:41:33.514Z,18.00
2022-10-16T09:44:04.372Z,18.10
2022-10-16T09:46:38.871Z,18.50
2022-10-16T09:49:26.547Z,18.30
2022-10-16T09:52:06.008Z,18.60
2022-10-16T09:54:38.629Z,18.30
2022-10-16T09:57:29.931Z,18.40
2022-10-16T10:00:02.774Z,18.50
2022-10-16T10:02:37.045Z,18.50
2022-10-16T10:08:00.335Z,18.00
2022-10-16T10:10:34.651Z,18.10
2022-10-16T10:13:04.963Z,18.30
2022-10-16T10:15:50.725Z,18.50
2022-10-16T10:19:16.251Z,18.60
2022-10-16T10:21:57.549Z,18.60
2022-10-16T10:24:33.995Z,18.70
2022-10-16T10:27:10.802Z,18.60
2022-10-16T10:29:54.847Z,18.90
2022-10-16T10:32:27.618Z,18.90
2022-10-16T10:35:08.463Z,19.00
2022-10-16T10:38:05.429Z,19.20
2022-10-16T10:40:48.258Z,19.30
2022-10-16T10:43:31.186Z,19.50
2022-10-16T10:46:08.824Z,19.60
2022-10-16T10:48:54.346Z,19.70
2022-10-16T10:51:25.006Z,19.80
2022-10-16T10:54:02.732Z,19.90
2022-10-16T10:56:48.802Z,19.80
2022-10-16T10:59:35.540Z,19.70
2022-10-16T11:02:06.368Z,19.60
2022-10-16T11:05:13.404Z,19.60
2022-10-16T11:07:47.553Z,19.70
2022-10-16T11:10:20.316Z,19.80
2022-10-16T11:12:57.260Z,19.80
2022-10-16T11:18:22.208Z,19.60
2022-10-16T11:20:57.009Z,19.60
2022-10-16T11:23:29.327Z,19.70
2022-10-16T11:26:03.813Z,19.80
2022-10-16T11:28:37.296Z,19.90
2022-10-16T11:31:07.998Z,19.90
2022-10-16T11:33:43.813Z,20.00
2022-10-16T11:36:15.133Z,20.00
2022-10-16T11:38:51.395Z,20.10
2022-10-16T11:41:27.102Z,20.30
2022-10-16T11:44:06.291Z,20.40
2022-10-16T11:46:47.783Z,20.50
2022-10-16T11:49:33.045Z,20.50
2022-10-16T11:52:05.744Z,20.40
2022-10-16T11:54:43.669Z,20.60
2022-10-16T11:57:16.747Z,20.60
2022-10-16T11:59:49.079Z,20.60
2022-10-16T12:02:35.268Z,20.60
2022-10-16T12:05:16.611Z,20.80
2022-10-16T12:07:49.525Z,20.90
2022-10-16T12:10:27.395Z,21.10
2022-10-16T12:12:59.894Z,21.10
2022-10-16T12:15:57.763Z,21.00
2022-10-16T12:18:28.039Z,20.90
2022-10-16T12:21:02.054Z,20.80
2022-10-16T12:23:30.347Z,20.90
2022-10-16T12:25:59.118Z,20.90
2022-10-16T12:28:33.951Z,20.90
2022-10-16T12:31:13.463Z,20.90
2022-10-16T12:33:44.502Z,20.80
2022-10-16T12:36:16.514Z,20.70
2022-10-16T12:38:50.499Z,20.70
2022-10-16T12:41:27.502Z,20.70
2022-10-16T12:44:05.268Z,20.70
2022-10-16T12:46:45.803Z,20.70
2022-10-16T12:49:35.517Z,20.70
2022-10-16T12:52:08.292Z,20.80
2022-10-16T12:54:46.801Z,20.80
2022-10-16T12:57:35.630Z,20.70
2022-10-16T13:00:17.620Z,20.60
2022-10-16T13:03:12.643Z,20.50
2022-10-16T13:05:51.153Z,20.40
2022-10-16T13:08:49.932Z,20.30
2022-10-16T13:11:24.356Z,20.10
2022-10-16T13:14:30.605Z,20.00
2022-10-16T13:17:12.989Z,20.00
2022-10-16T13:20:06.765Z,19.90
2022-10-16T13:22:46.271Z,19.90
2022-10-16T13:25:25.913Z,19.90
2022-10-16T13:28:15.867Z,19.80
2022-10-16T13:30:48.071Z,19.80
2022-10-16T13:33:25.293Z,19.80
2022-10-16T13:38:33.788Z,19.80
2022-10-16T13:41:12.470Z,19.70
2022-10-16T13:43:49.001Z,19.60
2022-10-16T13:46:24.068Z,19.60
2022-10-16T13:49:05.396Z,19.60
2022-10-16T13:51:37.354Z,19.50
2022-10-16T13:54:10.216Z,19.50
2022-10-16T13:56:41.777Z,19.40
2022-10-16T13:59:28.391Z,19.40
2022-10-16T14:02:00.272Z,19.40
2022-10-16T14:04:41.594Z,19.40
2022-10-16T14:07:26.309Z,19.40
2022-10-16T14:10:08.106Z,19.40
2022-10-16T14:12:50.970Z,19.30
2022-10-16T14:15:42.294Z,19.30
2022-10-16T14:19:36.732Z,19.20
2022-10-16T14:22:15.157Z,19.20
2022-10-16T14:24:51.918Z,19.20
2022-10-16T14:27:39.796Z,19.20
2022-10-16T14:30:22.257Z,19.20
2022-10-16T14:33:01.842Z,19.20
2022-10-16T14:35:34.006Z,19.20
2022-10-16T14:38:22.549Z,19.20
2022-10-16T14:41:05.005Z,19.10
2022-10-16T14:44:00.872Z,19.10
2022-10-16T14:46:40.344Z,19.00
2022-10-16T14:49:40.435Z,19.00
2022-10-16T14:52:27.539Z,18.90
2022-10-16T14:55:10.472Z,19.00
2022-10-16T14:57:47.545Z,19.00
2022-10-16T15:00:24.395Z,19.00
2022-10-16T15:02:53.001Z,19.00
2022-10-16T15:08:17.610Z,19.00
2022-10-16T15:10:55.525Z,18.90
2022-10-16T15:13:29.348Z,18.80
2022-10-16T15:16:16.129Z,18.70
2022-10-16T15:18:48.371Z,18.70
2022-10-16T15:21:32.880Z,18.60
2022-10-16T15:24:17.825Z,18.60
2022-10-16T15:26:53.919Z,18.60
2022-10-16T15:29:30.375Z,18.60
2022-10-16T15:32:10.050Z,18.60
2022-10-16T15:34:40.099Z,18.60
2022-10-16T15:37:08.718Z,18.50
2022-10-16T15:39:40.638Z,18.50
2022-10-16T15:42:51.869Z,18.40
2022-10-16T15:45:23.106Z,18.40
2022-10-16T15:48:03.499Z,18.30
2022-10-16T15:50:38.964Z,18.30
2022-10-16T15:53:13.976Z,18.30
2022-10-16T15:55:46.560Z,18.20
2022-10-16T15:58:25.250Z,18.20
2022-10-16T16:00:58.183Z,18.10
2022-10-16T16:03:52.918Z,18.10
2022-10-16T16:06:30.602Z,18.10
2022-10-16T16:11:44.729Z,18.10
2022-10-16T16:14:20.782Z,18.10
2022-10-16T16:16:53.813Z,18.10
2022-10-16T16:19:23.740Z,18.00
2022-10-16T16:21:56.467Z,18.00
2022-10-16T16:24:31.265Z,17.90
2022-10-16T16:26:59.788Z,17.80
2022-10-16T16:29:29.763Z,17.80
2022-10-16T16:32:00.334Z,17.70
2022-10-16T16:34:31.351Z,17.60
2022-10-16T16:36:59.608Z,17.50
2022-10-16T16:39:31.078Z,17.50
2022-10-16T16:42:01.297Z,17.40
2022-10-16T16:44:31.928Z,17.30
2022-10-16T16:47:08.456Z,17.30
2022-10-16T16:49:38.694Z,17.20
2022-10-16T16:52:14.777Z,17.20
2022-10-16T16:54:45.636Z,17.20
2022-10-16T16:57:30.690Z,17.10
2022-10-16T17:00:00.744Z,17.10
2022-10-16T17:02:29.145Z,17.00
2022-10-16T17:05:07.200Z,16.90
2022-10-16T17:07:44.331Z,16.80
2022-10-16T17:10:14.618Z,16.80
2022-10-16T17:12:45.240Z,16.70
2022-10-16T17:15:20.243Z,16.60
2022-10-16T17:17:54.447Z,16.60
2022-10-16T17:20:27.458Z,16.50
2022-10-16T17:22:56.864Z,16.60
2022-10-16T17:25:25.558Z,16.50
2022-10-16T17:28:00.739Z,16.50
2022-10-16T17:30:30.895Z,16.60
2022-10-16T17:32:59.330Z,16.50
2022-10-16T17:35:31.485Z,16.50
2022-10-16T17:38:02.648Z,16.50
2022-10-16T17:40:33.153Z,16.50
2022-10-16T17:43:04.593Z,16.50
2022-10-16T17:45:38.333Z,16.50
2022-10-16T17:48:13.098Z,16.50
2022-10-16T17:50:42.139Z,16.40
2022-10-16T17:53:10.528Z,16.40
2022-10-16T17:55:50.970Z,16.30
2022-10-16T17:58:24.476Z,16.30
2022-10-16T18:00:57.360Z,16.30
2022-10-16T18:03:29.504Z,16.30
2022-10-16T18:05:58.367Z,16.20
2022-10-16T18:08:28.816Z,16.20
2022-10-16T18:11:03.219Z,16.20
2022-10-16T18:13:38.394Z,16.20
2022-10-16T18:16:13.035Z,16.10
2022-10-16T18:18:52.471Z,16.10
2022-10-16T18:21:27.518Z,16.10
2022-10-16T18:23:58.735Z,16.10
2022-10-16T18:26:30.282Z,16.10
2022-10-16T18:29:05.086Z,16.10
2022-10-16T18:31:39.143Z,16.00
2022-10-16T18:34:20.597Z,16.10
2022-10-16T18:36:55.294Z,16.00
2022-10-16T18:39:24.902Z,16.00
2022-10-16T18:41:59.734Z,16.00
2022-10-16T18:44:35.569Z,16.00
2022-10-16T18:47:05.450Z,16.00
2022-10-16T18:49:33.977Z,15.90
2022-10-16T18:52:06.274Z,15.90
2022-10-16T18:54:35.059Z,15.90
2022-10-16T18:57:03.877Z,15.90
2022-10-16T18:59:35.277Z,15.90
2022-10-16T19:02:11.746Z,15.90
2022-10-16T19:04:44.525Z,15.90
2022-10-16T19:07:18.648Z,15.90
2022-10-16T19:09:51.436Z,15.80
2022-10-16T19:12:22.861Z,15.80
2022-10-16T19:14:56.453Z,15.80
2022-10-16T19:17:29.946Z,15.70
2022-10-16T19:20:00.009Z,15.80
2022-10-16T19:22:51.547Z,15.70
2022-10-16T19:25:22.652Z,15.70
2022-10-16T19:27:52.313Z,15.70
2022-10-16T19:30:26.633Z,15.70
2022-10-16T19:32:57.835Z,15.70
2022-10-16T19:35:26.670Z,15.70
2022-10-16T19:37:55.096Z,15.70
2022-10-16T19:40:23.814Z,15.70
2022-10-16T19:42:53.671Z,15.70
2022-10-16T19:45:22.027Z,15.60
2022-10-16T19:47:50.410Z,15.60
2022-10-16T19:50:20.490Z,15.60
2022-10-16T19:52:50.562Z,15.50
2022-10-16T19:55:21.894Z,15.50
2022-10-16T19:57:50.344Z,15.40
2022-10-16T20:00:20.554Z,15.40
2022-10-16T20:02:48.842Z,15.40
2022-10-16T20:05:30.458Z,15.30
2022-10-16T20:08:00.274Z,15.30
2022-10-16T20:10:29.232Z,15.20
2022-10-16T20:12:59.909Z,15.20
2022-10-16T20:15:28.446Z,15.20
2022-10-16T20:17:58.094Z,15.20
2022-10-16T20:20:27.813Z,15.20
2022-10-16T20:22:57.273Z,15.10
2022-10-16T20:25:25.830Z,15.10
2022-10-16T20:27:54.352Z,15.10
2022-10-16T20:30:23.707Z,15.10
2022-10-16T20:32:53.875Z,15.10
2022-10-16T20:35:24.635Z,15.20
2022-10-16T20:37:56.948Z,15.20
2022-10-16T20:40:36.118Z,15.20
2022-10-16T20:43:04.514Z,15.20
2022-10-16T20:45:34.142Z,15.30
2022-10-16T20:48:02.723Z,15.30
2022-10-16T20:50:32.864Z,15.40
2022-10-16T20:53:05.058Z,15.40
2022-10-16T20:55:35.662Z,15.40
2022-10-16T20:58:05.351Z,15.50
2022-10-16T21:00:34.107Z,15.50
2022-10-16T21:03:02.375Z,15.50
2022-10-16T21:05:32.946Z,15.50
2022-10-16T21:08:08.219Z,15.60
2022-10-16T21:10:36.510Z,15.50
2022-10-16T21:13:04.957Z,15.60
2022-10-16T21:15:35.317Z,15.60
2022-10-16T21:18:09.820Z,15.60
2022-10-16T21:20:44.823Z,15.60
2022-10-16T21:23:15.280Z,15.50
2022-10-16T21:25:52.113Z,15.50
2022-10-16T21:28:28.602Z,15.50
2022-10-16T21:30:57.059Z,15.50
2022-10-16T21:33:28.635Z,15.50
2022-10-16T21:36:04.134Z,15.50
2022-10-16T21:38:36.105Z,15.50
2022-10-16T21:41:15.337Z,15.50
2022-10-16T21:43:46.521Z,15.50
2022-10-16T21:46:17.489Z,15.40
2022-10-16T21:48:47.188Z,15.40
2022-10-16T21:51:17.922Z,15.40
2022-10-16T21:53:47.578Z,15.40
2022-10-16T21:56:16.442Z,15.30
2022-10-16T21:58:45.495Z,15.30
2022-10-16T22:01:19.105Z,15.30
2022-10-16T22:04:00.070Z,15.30
2022-10-16T22:06:31.733Z,15.30
2022-10-16T22:09:06.022Z,15.20
2022-10-16T22:11:37.740Z,15.20
2022-10-16T22:14:06.391Z,15.20
2022-10-16T22:16:35.627Z,15.20
2022-10-16T22:19:07.410Z,15.30
2022-10-16T22:21:37.909Z,15.30
2022-10-16T22:24:15.927Z,15.30
2022-10-16T22:26:49.338Z,15.30
2022-10-16T22:29:20.576Z,15.30
2022-10-16T22:31:52.765Z,15.30
2022-10-16T22:34:23.969Z,15.30
2022-10-16T22:36:54.816Z,15.30
2022-10-16T22:39:27.109Z,15.30
2022-10-16T22:42:01.037Z,15.30
2022-10-16T22:44:30.166Z,15.30
2022-10-16T22:46:58.722Z,15.40
2022-10-16T22:49:32.062Z,15.40
2022-10-16T22:52:06.540Z,15.40
2022-10-16T22:54:38.246Z,15.40
2022-10-16T22:57:07.038Z,15.50
2022-10-16T22:59:37.295Z,15.50
2022-10-16T23:02:10.175Z,15.50
2022-10-16T23:04:38.500Z,15.50
2022-10-16T23:07:06.918Z,15.60
2022-10-16T23:09:36.764Z,15.60
2022-10-16T23:12:05.168Z,15.60
2022-10-16T23:14:33.619Z,15.60
2022-10-16T23:17:09.299Z,15.60
2022-10-16T23:19:45.647Z,15.60
2022-10-16T23:22:15.616Z,15.70
2022-10-16T23:24:48.481Z,15.70
2022-10-16T23:27:16.972Z,15.60
2022-10-16T23:29:48.323Z,15.70
2022-10-16T23:32:17.027Z,15.60
2022-10-16T23:34:45.677Z,15.70
2022-10-16T23:37:14.240Z,15.60
2022-10-16T23:39:49.398Z,15.60
2022-10-16T23:42:17.821Z,15.60
2022-10-16T23:44:46.120Z,15.60
2022-10-16T23:47:14.501Z,15.60
2022-10-16T23:49:45.316Z,15.50
2022-10-16T23:52:16.544Z,15.50
2022-10-16T23:54:47.336Z,15.50
2022-10-16T23:57:17.538Z,15.50
2022-10-16T23:59:46.030Z,15.40
